Time;durP1;ratioP1;P1;durP2;ratioP2;P2;SDS_P1;SDS_P2;PMS_P1;PMS_P2;Temp;Humidity;BMP_temperature;BMP_pressure;BME280_temperature;BME280_humidity;BME280_pressure;Samples;Min_cycle;Max_cycle;Signal;HPM_P1;HPM_P2
2024/01/24 00:00:47;;;;;;;38.38;34.63;;;26.20;99.90;;;;;;5034113;28;20398;-66
2024/01/24 00:03:14;;;;;;;38.50;34.70;;;26.20;99.90;;;;;;5035244;28;20060;-65
2024/01/24 00:05:40;;;;;;;43.25;38.95;;;26.10;99.90;;;;;;5035323;28;20060;-66
2024/01/24 00:08:07;;;;;;;37.92;34.35;;;26.10;99.90;;;;;;5035303;28;20546;-66
2024/01/24 00:10:33;;;;;;;35.60;31.88;;;26.10;99.90;;;;;;5035179;28;20048;-66
2024/01/24 00:13:00;;;;;;;42.00;38.17;;;26.10;99.90;;;;;;5035155;28;20052;-66
2024/01/24 00:15:26;;;;;;;43.08;38.60;;;26.20;99.90;;;;;;5035126;28;20398;-66
2024/01/24 00:17:53;;;;;;;42.70;38.40;;;26.20;99.90;;;;;;5034941;28;20105;-66
2024/01/24 00:20:19;;;;;;;57.10;51.08;;;26.20;99.90;;;;;;5034925;28;20026;-66
2024/01/24 00:22:46;;;;;;;60.20;53.63;;;26.20;99.90;;;;;;5035044;28;20386;-66
2024/01/24 00:25:12;;;;;;;42.45;38.35;;;26.30;99.90;;;;;;5034862;28;20029;-66
2024/01/24 00:27:39;;;;;;;40.58;36.67;;;26.20;99.90;;;;;;5034692;28;20060;-66
2024/01/24 00:30:07;;;;;;;37.97;34.15;;;26.30;99.90;;;;;;5028962;28;20068;-66
2024/01/24 00:32:33;;;;;;;149.00;65.88;;;26.20;99.90;;;;;;5023215;28;20025;-66
2024/01/24 00:35:00;;;;;;;33.38;28.85;;;26.20;99.90;;;;;;5024476;28;20064;-66
2024/01/24 00:37:26;;;;;;;37.97;31.08;;;26.20;99.90;;;;;;5020228;28;20054;-67
2024/01/24 00:39:53;;;;;;;24.85;22.02;;;26.20;99.90;;;;;;5014346;28;20409;-67
2024/01/24 00:42:19;;;;;;;27.98;24.25;;;26.20;99.90;;;;;;5014657;28;20040;-66
2024/01/24 00:44:50;;;;;;;31.48;25.23;;;26.20;99.90;;;;;;5014687;28;20475;-65
2024/01/24 00:47:19;;;;;;;27.67;24.45;;;26.20;99.90;;;;;;5014568;28;20054;-67
2024/01/24 00:49:45;;;;;;;27.98;25.08;;;26.20;99.90;;;;;;5016944;28;20037;-66
2024/01/24 00:52:12;;;;;;;26.38;23.55;;;26.20;99.90;;;;;;5014641;28;20030;-67
2024/01/24 00:54:38;;;;;;;26.38;23.58;;;26.20;99.90;;;;;;5014862;28;20467;-67
2024/01/24 00:57:05;;;;;;;24.45;21.63;;;26.20;99.90;;;;;;5015205;28;20030;-67
2024/01/24 00:59:31;;;;;;;29.15;24.95;;;26.20;99.90;;;;;;5034451;28;20029;-66
2024/01/24 01:01:58;;;;;;;33.88;27.88;;;26.30;99.90;;;;;;5034199;28;20036;-66
2024/01/24 01:04:24;;;;;;;31.48;27.25;;;26.30;99.90;;;;;;5034046;28;20053;-66
2024/01/24 01:06:51;;;;;;;26.05;23.33;;;26.30;99.90;;;;;;5021073;28;20113;-66
2024/01/24 01:09:17;;;;;;;28.00;25.02;;;26.30;99.90;;;;;;5030621;28;20021;-67
2024/01/24 01:11:44;;;;;;;37.40;29.40;;;26.40;99.90;;;;;;5017718;28;20022;-66
2024/01/24 01:14:10;;;;;;;33.50;29.88;;;26.40;99.90;;;;;;5034170;28;20104;-67
2024/01/24 01:16:37;;;;;;;30.98;27.63;;;26.40;99.90;;;;;;5033979;28;20079;-66
2024/01/24 01:19:03;;;;;;;32.55;27.20;;;26.50;99.90;;;;;;5020399;28;20475;-66
2024/01/24 01:21:30;;;;;;;45.10;30.60;;;26.40;99.90;;;;;;5014181;28;20030;-66
2024/01/24 01:23:56;;;;;;;32.60;27.23;;;26.40;99.90;;;;;;5014211;28;20026;-66
2024/01/24 01:26:23;;;;;;;34.38;27.20;;;26.40;99.90;;;;;;5013981;28;20034;-66
2024/01/24 01:28:49;;;;;;;42.47;29.77;;;26.40;99.90;;;;;;5013972;28;20622;-66
2024/01/24 01:31:16;;;;;;;27.35;24.38;;;26.50;99.90;;;;;;5031225;28;20112;-66
2024/01/24 01:33:42;;;;;;;31.52;24.00;;;26.50;99.90;;;;;;5034010;28;20095;-67
2024/01/24 01:36:09;;;;;;;32.05;22.05;;;26.50;99.90;;;;;;5025921;28;20056;-66
2024/01/24 01:38:35;;;;;;;28.40;22.27;;;26.50;99.90;;;;;;5013822;28;20030;-67
2024/01/24 01:41:02;;;;;;;27.38;22.08;;;26.50;99.90;;;;;;5013827;28;20018;-66
2024/01/24 01:43:28;;;;;;;32.05;23.50;;;26.50;99.90;;;;;;5013714;28;20044;-67
2024/01/24 01:46:02;;;;;;;36.20;27.38;;;26.60;99.90;;;;;;5013899;28;20104;-66
2024/01/24 01:48:28;;;;;;;36.17;26.60;;;26.60;99.90;;;;;;5013669;28;20083;-65
2024/01/24 01:50:55;;;;;;;33.58;27.55;;;26.70;99.90;;;;;;5012914;28;20053;-66
2024/01/24 01:53:21;;;;;;;37.63;27.77;;;26.70;99.90;;;;;;5013798;28;20026;-67
2024/01/24 01:55:48;;;;;;;35.75;26.38;;;26.70;99.90;;;;;;5014006;28;20057;-66
2024/01/24 01:58:16;;;;;;;33.10;26.42;;;26.70;99.90;;;;;;5014324;28;20506;-66
2024/01/24 02:00:46;;;;;;;37.28;28.15;;;26.80;99.90;;;;;;5013710;28;20026;-67
2024/01/24 02:03:13;;;;;;;32.88;26.67;;;26.70;99.90;;;;;;5013692;28;20018;-66
2024/01/24 02:05:40;;;;;;;39.08;30.38;;;26.70;99.90;;;;;;5013718;28;20030;-67
2024/01/24 02:08:07;;;;;;;35.08;28.88;;;26.70;99.90;;;;;;5013637;28;20037;-67
2024/01/24 02:10:34;;;;;;;35.42;28.05;;;26.80;99.90;;;;;;5014023;28;20348;-66
2024/01/24 02:13:00;;;;;;;34.85;28.77;;;26.80;99.90;;;;;;5013526;28;20118;-67
2024/01/24 02:15:29;;;;;;;71.50;55.95;;;26.80;99.90;;;;;;5013560;28;20022;-67
2024/01/24 02:17:55;;;;;;;138.18;122.95;;;26.90;99.90;;;;;;5013305;28;20028;-65
2024/01/24 02:20:22;;;;;;;84.47;75.07;;;26.90;99.90;;;;;;5013416;28;20057;-67
2024/01/24 02:22:49;;;;;;;44.10;35.80;;;26.90;99.90;;;;;;5013384;28;20112;-66
2024/01/24 02:25:15;;;;;;;41.78;29.42;;;26.90;99.90;;;;;;5013550;28;20026;-66
2024/01/24 02:27:42;;;;;;;37.17;29.88;;;27.00;99.90;;;;;;5013286;28;20479;-66
2024/01/24 02:30:09;;;;;;;35.15;25.10;;;27.00;99.90;;;;;;5013217;28;20116;-68
2024/01/24 02:32:35;;;;;;;36.63;31.85;;;27.00;99.90;;;;;;5013360;28;20026;-67
2024/01/24 02:35:02;;;;;;;40.38;32.63;;;27.00;99.90;;;;;;5023040;28;20101;-66
2024/01/24 02:37:28;;;;;;;40.45;34.42;;;27.00;99.90;;;;;;5030034;28;20124;-66
2024/01/24 02:39:55;;;;;;;47.00;35.42;;;27.00;99.90;;;;;;5024650;28;20018;-67
2024/01/24 02:42:21;;;;;;;41.55;37.03;;;27.10;99.90;;;;;;5024105;28;20021;-67
2024/01/24 02:44:48;;;;;;;45.30;36.17;;;27.10;99.90;;;;;;5022204;28;20014;-66
2024/01/24 02:47:14;;;;;;;46.42;32.55;;;27.10;99.90;;;;;;5024589;28;20049;-66
2024/01/24 02:49:41;;;;;;;37.83;31.55;;;27.20;99.90;;;;;;5022805;28;20029;-66
2024/01/24 02:52:07;;;;;;;38.60;34.40;;;27.20;99.90;;;;;;5031582;28;20025;-66
2024/01/24 02:54:37;;;;;;;36.30;30.52;;;27.20;99.90;;;;;;5023546;28;20026;-67
2024/01/24 02:57:04;;;;;;;56.05;46.22;;;27.20;99.90;;;;;;5022704;28;20105;-66
2024/01/24 02:59:31;;;;;;;119.15;94.68;;;27.30;99.90;;;;;;5021641;28;20018;-67
2024/01/24 03:01:57;;;;;;;55.05;46.80;;;27.30;99.90;;;;;;5023410;28;20581;-67
2024/01/24 03:04:24;;;;;;;50.33;41.85;;;27.30;99.90;;;;;;5026482;28;20022;-66
2024/01/24 03:06:50;;;;;;;50.88;45.58;;;27.40;99.90;;;;;;5028824;28;20398;-66
2024/01/24 03:09:17;;;;;;;63.72;47.50;;;27.40;99.90;;;;;;5029892;28;20029;-66
2024/01/24 03:11:43;;;;;;;55.80;45.72;;;27.40;99.90;;;;;;5027260;28;20028;-66
2024/01/24 03:14:10;;;;;;;51.28;43.58;;;27.50;99.90;;;;;;5026047;28;20026;-66
2024/01/24 03:16:36;;;;;;;53.30;44.95;;;27.50;99.90;;;;;;5026791;28;20045;-66
2024/01/24 03:19:05;;;;;;;50.00;37.83;;;27.50;99.90;;;;;;5026834;28;20018;-67
2024/01/24 03:21:32;;;;;;;45.53;38.33;;;27.50;99.90;;;;;;5029066;28;20044;-66
2024/01/24 03:23:59;;;;;;;43.63;39.00;;;27.60;99.90;;;;;;5026990;28;20471;-68
2024/01/24 03:26:26;;;;;;;51.13;38.30;;;27.70;99.90;;;;;;5024994;28;20034;-67
2024/01/24 03:28:53;;;;;;;37.40;32.47;;;27.80;99.90;;;;;;5025341;28;20367;-68
2024/01/24 03:31:19;;;;;;;33.60;28.42;;;27.90;99.90;;;;;;5026667;28;20163;-70
2024/01/24 03:33:46;;;;;;;33.78;30.30;;;27.90;99.90;;;;;;5025178;28;20014;-68
2024/01/24 03:36:12;;;;;;;30.60;27.35;;;28.00;99.90;;;;;;5025536;28;20064;-68
2024/01/24 03:38:39;;;;;;;30.88;27.35;;;28.10;99.90;;;;;;5026812;28;20530;-68
2024/01/24 03:41:05;;;;;;;30.50;27.40;;;28.10;99.90;;;;;;5024446;28;20037;-63
2024/01/24 03:43:32;;;;;;;26.92;24.20;;;28.10;99.90;;;;;;5026771;28;20037;-64
2024/01/24 03:45:59;;;;;;;30.30;27.10;;;28.10;99.90;;;;;;5024341;28;20040;-65
2024/01/24 03:48:26;;;;;;;29.10;25.88;;;28.30;99.90;;;;;;5025616;28;20550;-64
2024/01/24 03:50:52;;;;;;;28.75;24.90;;;28.40;99.90;;;;;;5025508;28;20030;-66
2024/01/24 03:53:19;;;;;;;31.15;25.35;;;28.50;99.90;;;;;;5024187;28;20053;-66
2024/01/24 03:55:45;;;;;;;31.05;26.77;;;28.50;99.90;;;;;;5025966;28;20020;-67
2024/01/24 03:58:12;;;;;;;37.50;33.33;;;28.60;99.90;;;;;;5025014;28;20024;-67
2024/01/24 04:00:38;;;;;;;38.17;30.40;;;28.60;99.90;;;;;;5023953;28;20554;-66
2024/01/24 04:03:05;;;;;;;44.05;31.95;;;28.60;99.90;;;;;;5025795;28;20103;-67
2024/01/24 04:05:32;;;;;;;39.45;31.33;;;28.70;99.90;;;;;;5025027;28;20032;-67
2024/01/24 04:07:59;;;;;;;40.47;33.25;;;28.70;99.90;;;;;;5024085;28;20065;-67
2024/01/24 04:10:25;;;;;;;38.63;30.58;;;28.70;99.90;;;;;;5025386;28;20079;-67
2024/01/24 04:12:52;;;;;;;47.28;31.58;;;28.80;99.90;;;;;;5024937;28;20379;-67
2024/01/24 04:15:18;;;;;;;42.13;34.30;;;28.90;99.90;;;;;;5031574;28;20021;-66
2024/01/24 04:17:45;;;;;;;51.42;38.55;;;28.90;99.90;;;;;;5026244;28;20597;-67
2024/01/24 04:20:12;;;;;;;47.88;33.17;;;29.10;99.90;;;;;;5024754;28;20030;-66
2024/01/24 04:22:38;;;;;;;51.63;33.88;;;29.20;99.90;;;;;;5022898;28;20454;-66
2024/01/24 04:25:05;;;;;;;44.15;31.98;;;29.20;99.90;;;;;;5015259;28;20490;-67
2024/01/24 04:27:32;;;;;;;49.55;34.78;;;29.20;99.90;;;;;;5015108;28;20072;-67
2024/01/24 04:29:58;;;;;;;46.13;33.17;;;29.30;99.90;;;;;;5015176;28;20038;-67
2024/01/24 04:32:25;;;;;;;43.85;35.65;;;29.30;99.90;;;;;;5015068;28;20072;-67
2024/01/24 04:34:52;;;;;;;41.78;33.85;;;29.30;99.90;;;;;;5014837;28;20014;-67
2024/01/24 04:37:18;;;;;;;44.10;33.33;;;29.40;99.90;;;;;;5030190;28;20026;-66
2024/01/24 04:39:45;;;;;;;42.22;33.55;;;29.40;99.90;;;;;;5033234;28;20526;-68
2024/01/24 04:42:11;;;;;;;55.50;38.15;;;29.40;99.90;;;;;;5033191;28;20114;-66
2024/01/24 04:44:38;;;;;;;43.30;34.00;;;29.40;99.90;;;;;;5030671;28;20025;-66
2024/01/24 04:47:04;;;;;;;49.53;38.28;;;29.50;99.90;;;;;;5025089;28;20038;-67
2024/01/24 04:49:31;;;;;;;46.63;35.97;;;29.50;99.90;;;;;;5024405;28;20025;-71
2024/01/24 04:51:57;;;;;;;40.72;33.90;;;29.60;99.90;;;;;;5023317;28;20017;-66
2024/01/24 04:54:24;;;;;;;44.45;36.00;;;29.70;99.90;;;;;;5025863;28;20396;-69
2024/01/24 04:56:50;;;;;;;48.83;37.00;;;29.70;99.90;;;;;;5024010;28;20025;-68
2024/01/24 04:59:17;;;;;;;51.13;40.15;;;29.70;99.90;;;;;;5025319;28;20387;-68
2024/01/24 05:01:44;;;;;;;44.70;34.10;;;29.70;99.90;;;;;;5025117;28;20478;-68
2024/01/24 05:04:11;;;;;;;41.20;30.95;;;29.70;99.90;;;;;;5023908;28;20038;-68
2024/01/24 05:06:38;;;;;;;50.50;34.35;;;29.80;99.90;;;;;;5025777;28;20041;-68
2024/01/24 05:09:04;;;;;;;40.65;34.05;;;29.80;99.90;;;;;;5031071;28;20065;-66
2024/01/24 05:11:31;;;;;;;40.90;30.45;;;29.70;99.90;;;;;;5023688;28;20025;-67
2024/01/24 05:14:00;;;;;;;35.47;27.73;;;29.80;99.90;;;;;;5024783;28;20014;-67
2024/01/24 05:16:29;;;;;;;34.13;27.88;;;29.90;99.90;;;;;;5025454;28;20014;-68
2024/01/24 05:18:56;;;;;;;38.80;31.17;;;30.00;99.90;;;;;;5022571;28;20022;-69
2024/01/24 05:21:23;;;;;;;32.45;25.15;;;30.10;99.90;;;;;;5024046;28;20061;-68
2024/01/24 05:23:50;;;;;;;31.15;27.80;;;30.30;99.90;;;;;;5022901;28;20034;-68
2024/01/24 05:26:17;;;;;;;31.17;23.48;;;30.30;99.90;;;;;;5022051;28;20482;-67
2024/01/24 05:28:43;;;;;;;33.03;26.23;;;30.50;99.90;;;;;;5024735;28;20029;-67
2024/01/24 05:31:10;;;;;;;33.78;29.02;;;30.60;99.90;;;;;;5022986;28;20034;-67
2024/01/24 05:33:36;;;;;;;38.38;27.83;;;30.70;99.90;;;;;;5023949;28;20040;-68
2024/01/24 05:36:03;;;;;;;42.15;30.02;;;30.70;99.90;;;;;;5020897;28;20383;-65
2024/01/24 05:38:30;;;;;;;33.53;26.42;;;30.70;99.90;;;;;;5025573;28;20143;-67
2024/01/24 05:40:56;;;;;;;31.45;25.45;;;30.70;99.90;;;;;;5027116;28;20378;-67
2024/01/24 05:43:23;;;;;;;33.33;24.77;;;30.70;99.90;;;;;;5022047;28;20026;-68
2024/01/24 05:45:51;;;;;;;37.13;26.92;;;30.70;99.90;;;;;;5024703;28;20037;-68
2024/01/24 05:48:18;;;;;;;31.80;24.75;;;30.60;99.90;;;;;;5021899;28;20567;-66
2024/01/24 05:50:45;;;;;;;32.55;23.10;;;30.70;99.90;;;;;;5023888;28;20029;-66
2024/01/24 05:53:11;;;;;;;32.55;22.95;;;30.80;99.90;;;;;;5023270;28;20022;-67
2024/01/24 05:55:38;;;;;;;29.88;23.13;;;30.90;99.90;;;;;;5021977;28;20379;-67
2024/01/24 05:58:05;;;;;;;29.63;22.88;;;30.90;99.90;;;;;;5024670;28;20022;-67
2024/01/24 06:00:32;;;;;;;28.10;21.30;;;30.90;99.90;;;;;;5022976;28;20026;-67
2024/01/24 06:02:59;;;;;;;31.42;23.70;;;31.00;99.90;;;;;;5024062;28;20033;-65
2024/01/24 06:05:25;;;;;;;36.25;25.13;;;31.20;99.90;;;;;;5022066;28;20438;-67
2024/01/24 06:07:52;;;;;;;28.73;24.58;;;31.30;99.90;;;;;;5027007;28;20108;-68
2024/01/24 06:10:20;;;;;;;33.53;26.00;;;31.50;99.90;;;;;;5029875;28;20513;-68
2024/01/24 06:12:46;;;;;;;30.65;24.90;;;31.50;99.90;;;;;;5023092;28;20064;-69
2024/01/24 06:15:13;;;;;;;29.48;26.27;;;31.50;99.90;;;;;;5022020;28;20501;-68
2024/01/24 06:17:39;;;;;;;28.65;24.95;;;31.60;99.90;;;;;;5022006;28;20034;-65
2024/01/24 06:20:08;;;;;;;29.73;23.35;;;31.60;99.90;;;;;;5023425;28;20013;-66
2024/01/24 06:22:35;;;;;;;27.67;22.23;;;31.60;99.90;;;;;;5021628;28;20049;-66
2024/01/24 06:25:03;;;;;;;28.05;23.02;;;31.60;99.90;;;;;;5021963;28;20038;-65
2024/01/24 06:27:29;;;;;;;26.65;22.25;;;31.50;99.90;;;;;;5014177;28;20022;-67
2024/01/24 06:29:56;;;;;;;30.73;23.88;;;31.60;99.90;;;;;;5014526;28;20493;-67
2024/01/24 06:32:22;;;;;;;28.60;21.65;;;31.70;99.90;;;;;;5017217;28;20026;-66
2024/01/24 06:34:49;;;;;;;29.02;22.23;;;31.80;99.90;;;;;;5021659;28;20075;-67
2024/01/24 06:37:15;;;;;;;31.17;23.13;;;31.90;99.90;;;;;;5022554;28;20517;-70
2024/01/24 06:39:42;;;;;;;27.88;20.48;;;31.90;99.90;;;;;;5027038;28;20471;-68
2024/01/24 06:42:10;;;;;;;24.02;20.10;;;31.90;99.90;;;;;;5025505;28;20060;-67
2024/01/24 06:44:37;;;;;;;22.00;18.67;;;31.90;99.90;;;;;;5025307;28;20391;-67
2024/01/24 06:47:03;;;;;;;27.00;22.38;;;31.90;99.90;;;;;;5026715;28;20042;-68
2024/01/24 06:49:30;;;;;;;25.52;21.42;;;31.90;99.90;;;;;;5025857;28;20029;-68
2024/01/24 06:51:56;;;;;;;23.58;20.95;;;32.00;99.90;;;;;;5025199;28;20112;-67
2024/01/24 06:54:23;;;;;;;25.20;20.63;;;32.20;99.90;;;;;;5026810;28;20020;-70
2024/01/24 06:56:49;;;;;;;27.50;20.13;;;32.20;99.90;;;;;;5034088;28;20075;-68
2024/01/24 06:59:16;;;;;;;25.80;21.25;;;32.20;99.90;;;;;;5036034;28;20025;-64
2024/01/24 07:01:42;;;;;;;26.35;19.38;;;32.30;99.90;;;;;;5032414;28;20549;-69
2024/01/24 07:04:09;;;;;;;25.25;21.67;;;32.30;99.90;;;;;;5021184;28;20398;-67
2024/01/24 07:06:36;;;;;;;24.30;20.77;;;32.50;99.90;;;;;;5032452;28;20029;-65
2024/01/24 07:09:02;;;;;;;27.38;21.00;;;32.60;99.90;;;;;;5035149;28;20425;-66
2024/01/24 07:11:29;;;;;;;29.17;21.08;;;32.60;99.90;;;;;;5034537;28;20391;-66
2024/01/24 07:13:55;;;;;;;30.05;22.42;;;32.60;99.90;;;;;;5035059;28;20026;-65
2024/01/24 07:16:22;;;;;;;22.40;18.38;;;32.70;99.90;;;;;;5035978;28;20030;-66
2024/01/24 07:18:48;;;;;;;25.85;19.42;;;32.60;99.90;;;;;;5036176;28;20048;-66
2024/01/24 07:21:15;;;;;;;25.98;19.63;;;32.60;99.90;;;;;;5035476;28;20029;-67
2024/01/24 07:23:41;;;;;;;28.23;19.88;;;32.70;99.90;;;;;;5035487;28;20029;-65
2024/01/24 07:26:08;;;;;;;24.67;19.85;;;32.70;99.90;;;;;;5031431;28;20442;-65
2024/01/24 07:28:35;;;;;;;24.90;20.15;;;32.70;99.90;;;;;;5025787;28;20057;-65
2024/01/24 07:31:02;;;;;;;23.80;19.35;;;32.60;99.90;;;;;;5024282;28;20033;-66
2024/01/24 07:33:28;;;;;;;25.85;20.17;;;32.60;99.90;;;;;;5025813;28;20116;-67
2024/01/24 07:35:55;;;;;;;22.63;19.20;;;32.60;99.90;;;;;;5025674;28;20475;-67
2024/01/24 07:38:21;;;;;;;34.47;20.42;;;32.60;99.90;;;;;;5024448;28;20068;-67
2024/01/24 07:40:48;;;;;;;30.52;18.90;;;32.60;99.90;;;;;;5025624;28;20020;-66
2024/01/24 07:43:15;;;;;;;26.60;18.67;;;32.60;99.90;;;;;;5025485;28;20503;-66
2024/01/24 07:45:42;;;;;;;26.55;18.85;;;32.50;99.90;;;;;;5023987;28;20109;-66
2024/01/24 07:48:13;;;;;;;22.88;18.38;;;32.60;99.90;;;;;;5024994;28;20049;-66
2024/01/24 07:50:42;;;;;;;24.85;19.55;;;32.60;99.90;;;;;;5025085;28;20036;-67
2024/01/24 07:53:09;;;;;;;20.45;16.58;;;32.60;99.90;;;;;;5024475;28;20053;-68
2024/01/24 07:55:35;;;;;;;24.83;18.73;;;32.60;99.90;;;;;;5024181;28;20021;-68
2024/01/24 07:58:02;;;;;;;21.05;17.17;;;32.70;99.90;;;;;;5025615;28;20056;-67
2024/01/24 08:00:29;;;;;;;25.67;19.85;;;32.70;99.90;;;;;;5024440;28;20058;-66
2024/01/24 08:02:57;;;;;;;25.80;18.25;;;32.70;99.90;;;;;;5024223;28;20101;-67
2024/01/24 08:05:25;;;;;;;24.17;17.27;;;32.70;99.90;;;;;;5028240;28;20025;-65
2024/01/24 08:07:51;;;;;;;23.98;18.98;;;32.70;99.90;;;;;;5024569;28;20026;-67
2024/01/24 08:10:18;;;;;;;25.92;17.58;;;32.70;99.90;;;;;;5023932;28;20041;-67
2024/01/24 08:12:44;;;;;;;22.13;17.95;;;32.70;99.90;;;;;;5026163;28;20065;-67
2024/01/24 08:15:11;;;;;;;22.17;17.67;;;32.70;99.90;;;;;;5024658;28;20018;-67
2024/01/24 08:17:37;;;;;;;23.73;18.08;;;32.80;99.90;;;;;;5025232;28;20045;-70
2024/01/24 08:20:04;;;;;;;23.25;19.08;;;32.80;99.90;;;;;;5023115;28;20064;-67
2024/01/24 08:22:31;;;;;;;27.73;21.67;;;32.80;99.90;;;;;;5024427;28;20025;-67
2024/01/24 08:24:58;;;;;;;30.50;19.90;;;32.80;99.90;;;;;;5025346;28;20018;-66
2024/01/24 08:27:24;;;;;;;29.30;21.13;;;32.70;99.90;;;;;;5023341;28;20419;-66
2024/01/24 08:29:51;;;;;;;31.48;21.70;;;32.70;99.90;;;;;;5024271;28;20025;-67
2024/01/24 08:32:17;;;;;;;35.90;28.10;;;32.70;99.90;;;;;;5025022;28;20025;-67
2024/01/24 08:34:44;;;;;;;38.08;28.55;;;32.70;99.90;;;;;;5022882;28;20084;-65
2024/01/24 08:37:12;;;;;;;38.92;28.33;;;32.60;99.90;;;;;;5024371;28;20087;-66
2024/01/24 08:39:40;;;;;;;37.83;27.17;;;32.60;99.90;;;;;;5024952;28;20066;-69
2024/01/24 08:42:07;;;;;;;35.58;27.80;;;32.60;99.90;;;;;;5025452;28;20116;-69
2024/01/24 08:44:33;;;;;;;37.33;24.98;;;32.50;99.90;;;;;;5024367;28;20475;-70
2024/01/24 08:47:00;;;;;;;33.90;25.58;;;32.50;99.90;;;;;;5024192;28;20098;-69
2024/01/24 08:49:26;;;;;;;38.40;28.92;;;32.60;99.90;;;;;;5024573;28;20152;-68
2024/01/24 08:51:53;;;;;;;41.30;27.52;;;32.50;99.90;;;;;;5023644;28;20022;-70
2024/01/24 08:54:19;;;;;;;36.00;24.73;;;32.50;99.90;;;;;;5022888;28;20072;-70
2024/01/24 08:56:46;;;;;;;38.67;27.65;;;32.50;99.90;;;;;;5025348;28;20022;-70
2024/01/24 08:59:12;;;;;;;90.45;68.03;;;32.50;99.90;;;;;;5024121;28;20031;-71
2024/01/24 09:01:39;;;;;;;50.75;35.55;;;32.40;99.90;;;;;;5033558;28;20064;-68
2024/01/24 09:04:05;;;;;;;43.97;30.58;;;32.40;99.90;;;;;;5033751;28;20037;-68
2024/01/24 09:06:32;;;;;;;39.78;27.08;;;32.30;99.90;;;;;;5033679;28;20033;-68
2024/01/24 09:08:58;;;;;;;44.25;30.45;;;32.20;99.90;;;;;;5028100;28;20069;-69
2024/01/24 09:11:25;;;;;;;42.20;28.33;;;32.10;99.90;;;;;;5022737;28;20422;-70
2024/01/24 09:13:51;;;;;;;32.45;23.70;;;32.10;99.90;;;;;;5024710;28;20466;-70
2024/01/24 09:16:18;;;;;;;35.50;25.50;;;32.00;99.90;;;;;;5024195;28;20092;-69
2024/01/24 09:18:45;;;;;;;36.55;25.48;;;32.00;99.90;;;;;;5022511;28;20022;-69
2024/01/24 09:21:11;;;;;;;51.58;27.40;;;31.90;99.90;;;;;;5023903;28;20022;-69
2024/01/24 09:23:38;;;;;;;49.35;38.15;;;31.80;99.90;;;;;;5023052;28;20022;-69
2024/01/24 09:26:04;;;;;;;51.08;38.13;;;31.90;99.90;;;;;;5024452;28;20048;-70
2024/01/24 09:28:31;;;;;;;42.05;27.23;;;31.90;99.90;;;;;;5023594;28;20036;-69
2024/01/24 09:30:57;;;;;;;33.10;25.90;;;31.90;99.90;;;;;;5023475;28;20045;-69
2024/01/24 09:33:24;;;;;;;36.35;26.10;;;32.00;99.90;;;;;;5022230;28;20022;-69
2024/01/24 09:35:50;;;;;;;37.65;27.85;;;31.90;99.90;;;;;;5024400;28;20020;-68
2024/01/24 09:38:17;;;;;;;39.35;26.15;;;31.90;99.90;;;;;;5023054;28;20044;-68
2024/01/24 09:40:43;;;;;;;37.20;26.23;;;31.90;99.90;;;;;;5024166;28;20033;-68
2024/01/24 09:43:10;;;;;;;33.47;26.20;;;31.90;99.90;;;;;;5023145;28;20040;-68
2024/01/24 09:45:42;;;;;;;32.45;24.00;;;31.80;99.90;;;;;;5023200;28;20021;-69
2024/01/24 09:48:11;;;;;;;32.97;23.95;;;31.70;99.90;;;;;;5024643;28;20054;-69
2024/01/24 09:50:38;;;;;;;40.42;30.08;;;31.80;99.90;;;;;;5022776;28;20581;-68
2024/01/24 09:53:07;;;;;;;39.60;31.77;;;31.80;99.90;;;;;;5021650;28;20196;-69
2024/01/24 09:55:34;;;;;;;44.45;34.97;;;31.80;99.90;;;;;;5025377;28;20013;-69
2024/01/24 09:58:02;;;;;;;93.35;69.60;;;31.90;99.90;;;;;;5022337;28;20494;-68
2024/01/24 10:00:29;;;;;;;39.80;31.52;;;32.00;99.90;;;;;;5021905;28;20044;-67
2024/01/24 10:02:57;;;;;;;34.80;27.52;;;32.00;99.90;;;;;;5024597;28;20061;-68
2024/01/24 10:05:26;;;;;;;31.27;25.58;;;32.00;99.90;;;;;;5022433;28;20038;-69
2024/01/24 10:07:53;;;;;;;35.95;25.20;;;32.00;99.90;;;;;;5020640;28;20364;-66
2024/01/24 10:10:20;;;;;;;37.25;25.60;;;32.00;99.90;;;;;;5032416;28;20021;-67
2024/01/24 10:12:47;;;;;;;33.90;25.60;;;32.00;99.90;;;;;;5034672;28;20033;-67
2024/01/24 10:15:14;;;;;;;31.75;26.08;;;32.00;99.90;;;;;;5037046;28;20140;-67
2024/01/24 10:17:42;;;;;;;38.97;26.80;;;32.00;99.90;;;;;;5038471;28;20026;-68
2024/01/24 10:20:11;;;;;;;45.60;34.03;;;32.10;99.90;;;;;;5056873;28;20029;-68
2024/01/24 10:22:39;;;;;;;41.53;30.55;;;32.10;99.90;;;;;;5017309;28;20022;-69
2024/01/24 10:25:06;;;;;;;53.45;42.13;;;32.00;99.90;;;;;;5022472;28;20111;-70
2024/01/24 10:27:34;;;;;;;63.90;44.22;;;32.00;99.90;;;;;;5025723;28;20053;-70
2024/01/24 10:30:01;;;;;;;45.50;34.95;;;32.00;99.90;;;;;;5026125;28;20024;-70
2024/01/24 10:32:27;;;;;;;38.03;30.40;;;32.10;99.90;;;;;;5027793;28;20017;-70
2024/01/24 10:34:54;;;;;;;64.28;42.75;;;32.10;99.90;;;;;;5026571;28;20021;-69
2024/01/24 10:37:21;;;;;;;43.72;28.55;;;32.00;99.90;;;;;;5026650;28;20028;-69
2024/01/24 10:39:50;;;;;;;37.55;28.30;;;32.00;99.90;;;;;;5027580;28;20048;-67
2024/01/24 10:42:19;;;;;;;45.65;34.35;;;31.90;99.90;;;;;;5033811;28;20072;-69
2024/01/24 10:44:50;;;;;;;48.47;35.70;;;31.90;99.90;;;;;;5028140;28;20053;-69
2024/01/24 10:47:17;;;;;;;39.97;30.27;;;31.90;99.90;;;;;;5027438;28;20050;-71
2024/01/24 10:49:44;;;;;;;71.38;54.67;;;31.90;99.90;;;;;;5027544;28;20018;-70
2024/01/24 10:52:11;;;;;;;52.08;39.95;;;31.90;99.90;;;;;;5029634;28;20036;-70
2024/01/24 10:54:40;;;;;;;51.72;38.55;;;31.80;99.90;;;;;;5028960;28;20269;-68
2024/01/24 10:57:07;;;;;;;79.70;58.42;;;31.90;99.90;;;;;;5053018;23;20049;-69
2024/01/24 10:59:38;;;;;;;50.28;38.45;;;31.80;99.90;;;;;;5078900;28;20036;-71
2024/01/24 11:02:06;;;;;;;43.78;32.85;;;31.80;99.90;;;;;;5077010;28;20549;-68
2024/01/24 11:04:34;;;;;;;48.20;32.15;;;31.70;99.90;;;;;;5073506;28;20017;-70
2024/01/24 11:07:06;;;;;;;39.55;29.35;;;31.70;99.90;;;;;;5075034;28;20082;-69
2024/01/24 11:09:53;;;;;;;42.17;31.80;;;31.60;99.90;;;;;;5070623;28;20031;-68
2024/01/24 11:12:21;;;;;;;49.00;31.67;;;31.60;99.90;;;;;;5073705;28;20512;-67
2024/01/24 11:14:48;;;;;;;43.55;31.40;;;31.60;99.90;;;;;;5073176;28;20032;-68
2024/01/24 11:17:15;;;;;;;41.15;30.58;;;31.60;99.90;;;;;;5075583;28;20096;-67
2024/01/24 11:19:42;;;;;;;40.85;28.55;;;31.60;99.90;;;;;;5071813;28;20016;-67
2024/01/24 11:22:11;;;;;;;41.33;30.40;;;31.50;99.90;;;;;;5070852;28;20492;-65
2024/01/24 11:24:40;;;;;;;42.90;29.10;;;31.50;99.90;;;;;;5073001;28;20055;-65
2024/01/24 11:27:36;;;;;;;43.70;31.08;;;31.50;99.90;;;;;;5076349;28;20470;-66
2024/01/24 11:30:12;;;;;;;50.80;31.00;;;31.50;99.90;;;;;;5075898;28;20469;-67
2024/01/24 11:32:47;;;;;;;43.90;32.53;;;31.40;99.90;;;;;;5074454;28;20025;-68
2024/01/24 11:35:36;;;;;;;56.45;34.63;;;31.40;99.90;;;;;;5072933;28;20016;-66
2024/01/24 11:38:08;;;;;;;51.00;35.78;;;31.40;99.90;;;;;;5074828;28;20416;-68
2024/01/24 11:40:38;;;;;;;49.53;35.88;;;31.40;99.90;;;;;;5073838;28;20023;-67
2024/01/24 11:43:05;;;;;;;49.92;34.83;;;31.30;99.90;;;;;;5074014;28;20036;-68
2024/01/24 11:45:32;;;;;;;54.25;36.70;;;31.20;99.90;;;;;;5073566;28;20371;-67
2024/01/24 11:47:58;;;;;;;42.78;31.88;;;31.20;99.90;;;;;;5074317;28;20044;-67
2024/01/24 11:50:25;;;;;;;64.22;38.60;;;31.20;99.90;;;;;;5074413;28;20028;-68
2024/01/24 11:52:58;;;;;;;77.90;53.20;;;31.20;99.90;;;;;;5073818;28;20024;-68
2024/01/24 11:55:25;;;;;;;134.25;100.03;;;31.20;99.90;;;;;;5058194;28;20025;-67
2024/01/24 11:57:51;;;;;;;93.28;69.10;;;31.20;99.90;;;;;;5045185;28;20026;-69
2024/01/24 12:00:18;;;;;;;71.10;51.85;;;31.10;99.90;;;;;;5061671;22;20100;-68
2024/01/24 12:02:45;;;;;;;56.03;37.75;;;31.10;99.90;;;;;;5034115;28;20061;-68
2024/01/24 12:05:11;;;;;;;58.45;38.55;;;31.10;99.90;;;;;;5034384;28;20104;-67
2024/01/24 12:07:39;;;;;;;68.88;43.40;;;31.00;99.90;;;;;;5034066;28;20055;-69
2024/01/24 12:10:08;;;;;;;82.65;58.40;;;31.00;99.90;;;;;;5034488;28;20033;-69
2024/01/24 12:12:35;;;;;;;91.63;66.15;;;31.00;99.90;;;;;;5033996;28;20025;-67
2024/01/24 12:15:02;;;;;;;159.32;114.57;;;31.00;99.90;;;;;;5026232;28;20072;-71
2024/01/24 12:17:28;;;;;;;70.65;48.80;;;30.90;99.90;;;;;;5034631;28;20032;-69
2024/01/24 12:19:59;;;;;;;54.28;39.95;;;30.90;99.90;;;;;;5034072;28;20045;-67
2024/01/24 12:22:34;;;;;;;56.17;36.58;;;30.80;99.90;;;;;;5034787;28;20040;-68
2024/01/24 12:25:01;;;;;;;50.38;36.65;;;30.80;99.90;;;;;;5033085;28;20021;-70